National Weather Service United States Department of Commerce

 

Aviation Weather Center TAFs Radar Soundings/Model Data Soaring
NWS Wichita Home Page Hazardous Weather Outlook NWS Graphical Forecasts

 

Wichita (ICT)
Hutchinson (HUT)
Tactical Decision Aid
 
Tactical Decision Aid
 

 
000
FTUS43 KICT 191734
TAFICT
TAF
KICT 191734Z 1918/2018 08007KT P6SM OVC090
FM192300 08005KT P6SM VCSH OVC050
FM200200 05005KT P6SM -SNRA OVC030
FM200400 03007KT 3SM -SN OVC008
FM201100 03011KT 4SM BR OVC010
FM201400 02011KT P6SM OVC025=
 
000
FTUS43 KICT 191734
TAFHUT
TAF
KHUT 191734Z 1918/2018 15010KT P6SM OVC090
FM192300 12005KT P6SM -SNRA OVC025
FM200200 02005KT 3SM -SN OVC010
FM201000 03013KT 4SM -SN BR OVC008
FM201200 03013KT 5SM BR OVC021
FM201700 02010KT P6SM SCT080=
Salina (SLN) Russell (RSL)
Tactical Decision Aid
Tactical Decision Aid

 
529
FTUS43 KICT 191734
TAFSLN
TAF
KSLN 191734Z 1918/2018 13011KT P6SM OVC090
FM200200 15005KT P6SM VCSH OVC025
FM200400 01011KT 4SM -SN OVC015
FM200900 02012KT 5SM BR VCSH OVC020
FM201100 02011KT 6SM BR BKN015
FM201600 02008KT P6SM FEW110=

 
524
FTUS43 KICT 191734
TAFRSL
TAF
KRSL 191734Z 1918/2018 16011KT P6SM OVC080
FM192200 18006KT P6SM VCSH OVC025
FM200000 12005KT 4SM -SN OVC010
FM200500 02014KT 1 1/2SM -SN OVC008
FM201000 02011KT 4SM BR OVC015
FM201200 02010KT 5SM BR OVC030=
Chanute (CNU) Great Bend (GBD)
Tactical Decision Aid
Tactical Decision Aid

 
000
FTUS43 KICT 191734
TAFCNU
TAF
KCNU 191734Z 1918/2018 11010KT P6SM BKN090
FM200300 08007KT P6SM VCSH OVC040
FM200600 03010KT 4SM -SN OVC025
FM200800 04012KT 3SM -SN OVC008
FM201200 03015KT P6SM OVC021
FM201700 02014KT P6SM FEW050=

 
530
FTUS43 KICT 191734
TAFGBD
TAF
KGBD 191734Z 1918/2018 15010KT P6SM OVC080
FM192100 16006KT 4SM -SN OVC010
FM200200 03007KT 1 1/2SM -SN OVC008
FM200900 02013KT 4SM BR VCSH OVC008
FM201100 02009KT P6SM OVC010=
 
NWS Wichita Aviation Forecast Discussion

 

 

IMPORTANT: This page is a tool to help pilots better visualize weather and weather-related hazards, and is not a substitute for a weather briefing obtained from a Flight Service Station (1-800-WXBRIEF). The information contained here does not meet the FAA requirements for a pre-flight weather brief. Therefore, it is important that pilots call and obtain a briefing from an FAA Flight Service Specialist.